Time;durP1;ratioP1;P1;durP2;ratioP2;P2;SDS_P1;SDS_P2;PMS_P1;PMS_P2;Temp;Humidity;BMP_temperature;BMP_pressure;BME280_temperature;BME280_humidity;BME280_pressure;Samples;Min_cycle;Max_cycle;Signal;HPM_P1;HPM_P2
2022/05/20 00:01:18;;;;;;;7.33;5.83;;;19.40;99.90;;;;;;10468356;28;20712;-70
2022/05/20 00:06:19;;;;;;;9.50;6.53;;;19.40;99.90;;;;;;10464653;28;20212;-70
2022/05/20 00:11:20;;;;;;;10.27;6.53;;;19.30;99.90;;;;;;10470734;28;20231;-69
2022/05/20 00:16:21;;;;;;;11.10;7.33;;;19.40;99.90;;;;;;10466028;28;20217;-69
2022/05/20 00:21:22;;;;;;;11.47;7.33;;;19.40;99.90;;;;;;10459060;28;20315;-70
2022/05/20 00:26:22;;;;;;;10.23;7.00;;;19.40;99.90;;;;;;10474456;28;20226;-69
2022/05/20 00:31:25;;;;;;;12.70;7.73;;;19.40;99.90;;;;;;10466251;28;20327;-69
2022/05/20 00:36:25;;;;;;;12.97;7.03;;;19.40;99.90;;;;;;10451380;28;20242;-70
2022/05/20 00:41:26;;;;;;;9.67;6.57;;;19.50;99.90;;;;;;10456546;28;20235;-69
2022/05/20 00:46:28;;;;;;;11.30;6.90;;;19.50;99.90;;;;;;10467783;28;20215;-69
2022/05/20 00:51:43;;;;;;;10.87;7.77;;;19.50;99.90;;;;;;10473128;28;20231;-70
2022/05/20 00:56:55;;;;;;;11.90;7.83;;;19.60;99.90;;;;;;10460880;28;20242;-70
2022/05/20 01:02:00;;;;;;;9.80;7.60;;;19.60;99.90;;;;;;10472096;28;20246;-70
2022/05/20 01:07:01;;;;;;;10.87;7.43;;;19.70;99.90;;;;;;10461473;28;20248;-70
2022/05/20 01:12:02;;;;;;;10.83;7.30;;;19.80;99.90;;;;;;10470268;28;20314;-69
2022/05/20 01:17:03;;;;;;;10.33;7.20;;;19.80;99.90;;;;;;10484142;28;20246;-70
2022/05/20 01:22:07;;;;;;;11.33;6.80;;;19.70;99.90;;;;;;10464161;28;20586;-70
2022/05/20 01:27:07;;;;;;;8.10;6.47;;;19.60;99.90;;;;;;10466642;28;20251;-70
2022/05/20 01:32:08;;;;;;;8.97;7.07;;;19.40;99.90;;;;;;10466666;28;20697;-70
2022/05/20 01:37:08;;;;;;;9.43;7.07;;;19.40;99.90;;;;;;10474938;28;20219;-71
2022/05/20 01:42:22;;;;;;;12.13;7.50;;;19.40;99.90;;;;;;10474171;28;20265;-69
2022/05/20 01:47:40;;;;;;;10.60;6.87;;;19.40;99.90;;;;;;10467567;28;20245;-70
2022/05/20 01:53:05;;;;;;;7.20;6.10;;;19.30;99.90;;;;;;10458283;28;20249;-70
2022/05/20 01:58:27;;;;;;;11.13;7.43;;;19.30;99.90;;;;;;10479561;28;20215;-69
2022/05/20 02:03:30;;;;;;;12.87;7.90;;;19.20;99.90;;;;;;10478833;28;20215;-70
2022/05/20 02:08:42;;;;;;;11.03;7.87;;;19.10;99.90;;;;;;10472802;28;20265;-69
2022/05/20 02:14:10;;;;;;;12.80;8.33;;;19.00;99.90;;;;;;10472894;28;20238;-70
2022/05/20 02:19:15;;;;;;;8.77;7.60;;;18.80;99.90;;;;;;10474110;28;20215;-69
2022/05/20 02:24:20;;;;;;;14.27;9.37;;;18.80;99.90;;;;;;10471520;28;20322;-70
2022/05/20 02:29:29;;;;;;;12.93;9.27;;;18.80;99.90;;;;;;10472464;28;20242;-71
2022/05/20 02:34:32;;;;;;;15.33;9.50;;;18.70;99.90;;;;;;10462599;28;20310;-70
2022/05/20 02:39:33;;;;;;;12.33;8.30;;;18.90;99.90;;;;;;10477242;28;20223;-70
2022/05/20 02:44:33;;;;;;;19.40;10.10;;;18.90;99.90;;;;;;10463861;28;20268;-70
2022/05/20 02:49:35;;;;;;;18.10;10.37;;;18.90;99.90;;;;;;10462795;28;20218;-71
2022/05/20 02:54:36;;;;;;;19.40;10.67;;;18.90;99.90;;;;;;10478528;28;20227;-70
2022/05/20 03:04:56;;;;;;;15.63;10.83;;;18.80;99.90;;;;;;10479581;28;20227;-70
2022/05/20 03:09:57;;;;;;;19.03;11.57;;;18.90;99.90;;;;;;10473407;28;20313;-71
2022/05/20 03:15:02;;;;;;;20.80;11.47;;;18.80;99.90;;;;;;10468965;28;20211;-70
2022/05/20 03:20:04;;;;;;;18.00;11.60;;;18.80;99.90;;;;;;10468768;28;20231;-70
2022/05/20 03:25:06;;;;;;;13.07;9.50;;;18.60;99.90;;;;;;10467661;28;20689;-70
2022/05/20 03:30:09;;;;;;;11.50;10.00;;;18.50;99.90;;;;;;10464383;28;20282;-71
2022/05/20 03:35:12;;;;;;;12.83;9.17;;;18.40;99.90;;;;;;10477138;28;20225;-70
2022/05/20 03:40:12;;;;;;;14.93;9.07;;;18.40;99.90;;;;;;10469091;28;20214;-71
2022/05/20 03:45:13;;;;;;;11.27;9.27;;;18.50;99.90;;;;;;10470555;28;20245;-71
2022/05/20 03:50:14;;;;;;;14.53;9.83;;;18.70;99.90;;;;;;10468687;28;20187;-70
2022/05/20 03:55:14;;;;;;;14.33;9.83;;;18.80;99.90;;;;;;10449075;28;20199;-69
2022/05/20 04:00:16;;;;;;;14.70;10.53;;;18.80;99.90;;;;;;10474136;28;20201;-69
2022/05/20 04:05:17;;;;;;;14.87;9.93;;;18.70;99.90;;;;;;10467935;28;20183;-70
2022/05/20 04:10:17;;;;;;;16.40;10.70;;;18.80;99.90;;;;;;10466356;28;20191;-69
2022/05/20 04:15:18;;;;;;;16.53;10.47;;;18.80;99.90;;;;;;10463777;28;20631;-69
2022/05/20 04:20:19;;;;;;;17.43;11.67;;;18.70;99.90;;;;;;10466069;28;20518;-69
2022/05/20 04:25:19;;;;;;;16.50;13.20;;;18.70;99.90;;;;;;10466970;28;20618;-68
2022/05/20 04:30:20;;;;;;;14.20;12.10;;;18.50;99.90;;;;;;10460447;28;20222;-68
2022/05/20 04:35:20;;;;;;;18.10;14.10;;;18.40;99.90;;;;;;10466238;28;20223;-69
2022/05/20 04:40:21;;;;;;;15.67;14.00;;;18.40;99.90;;;;;;10464423;28;20190;-69
2022/05/20 04:50:41;;;;;;;16.10;12.80;;;18.40;99.90;;;;;;10458912;28;20216;-69
2022/05/20 04:55:42;;;;;;;15.33;13.20;;;18.60;99.90;;;;;;10463735;28;20235;-69
2022/05/20 05:00:42;;;;;;;16.67;14.87;;;18.60;99.90;;;;;;10470474;28;20227;-70
2022/05/20 05:05:43;;;;;;;16.97;15.30;;;18.40;99.90;;;;;;10482711;28;20255;-70
2022/05/20 05:10:45;;;;;;;17.10;15.40;;;18.30;99.90;;;;;;10462741;28;20713;-69
2022/05/20 05:15:48;;;;;;;18.97;16.07;;;18.40;99.90;;;;;;10476545;28;20231;-69
2022/05/20 05:20:51;;;;;;;19.60;17.50;;;18.30;99.90;;;;;;10469911;28;20219;-69
2022/05/20 05:25:52;;;;;;;19.07;17.00;;;18.20;99.90;;;;;;10471873;28;20275;-70
2022/05/20 05:30:52;;;;;;;18.57;16.77;;;18.10;99.90;;;;;;10472468;28;20273;-68
2022/05/20 05:35:53;;;;;;;17.87;16.07;;;18.20;99.90;;;;;;10471486;28;20227;-69
2022/05/20 05:40:53;;;;;;;16.33;14.80;;;18.40;99.90;;;;;;10463833;28;20230;-70
2022/05/20 05:45:54;;;;;;;15.60;14.10;;;19.10;99.90;;;;;;10468574;28;20608;-71
2022/05/20 05:50:59;;;;;;;14.90;13.47;;;19.60;99.90;;;;;;10470960;28;20227;-69
2022/05/20 05:56:01;;;;;;;11.47;10.33;;;20.40;99.90;;;;;;10475460;28;20255;-69
2022/05/20 06:01:02;;;;;;;14.23;11.40;;;22.10;99.90;;;;;;10469238;28;20308;-68
2022/05/20 06:06:02;;;;;;;11.37;9.87;;;22.20;99.90;;;;;;10475393;28;20639;-68
2022/05/20 06:11:03;;;;;;;14.13;11.10;;;22.00;99.90;;;;;;10473709;28;20231;-69
2022/05/20 06:16:04;;;;;;;14.93;10.67;;;23.40;99.90;;;;;;10476535;28;20226;-69
2022/05/20 06:21:05;;;;;;;11.83;10.70;;;24.30;99.90;;;;;;10471252;28;20229;-69
2022/05/20 06:26:05;;;;;;;11.40;10.40;;;23.30;99.90;;;;;;10470379;28;20216;-69
2022/05/20 06:31:11;;;;;;;13.50;12.10;;;22.20;99.90;;;;;;10452392;28;20219;-69
2022/05/20 06:41:31;;;;;;;14.40;11.83;;;21.50;99.90;;;;;;10468670;28;20223;-68
2022/05/20 06:46:31;;;;;;;13.20;11.57;;;22.10;99.90;;;;;;10470139;28;20220;-68
2022/05/20 06:51:35;;;;;;;11.60;10.60;;;23.60;99.90;;;;;;10475308;28;20271;-67
2022/05/20 06:56:36;;;;;;;10.30;8.93;;;25.20;99.90;;;;;;10461983;28;20707;-68
2022/05/20 07:01:39;;;;;;;10.63;8.97;;;26.20;99.90;;;;;;10466985;28;20264;-69
2022/05/20 07:06:40;;;;;;;10.80;8.63;;;27.20;99.90;;;;;;10460797;28;20273;-69
2022/05/20 07:11:42;;;;;;;10.17;9.20;;;28.40;99.90;;;;;;10452928;28;20208;-69
2022/05/20 07:16:43;;;;;;;10.40;9.03;;;28.20;99.90;;;;;;10467417;28;20281;-69
2022/05/20 07:21:44;;;;;;;6.97;6.27;;;27.70;99.90;;;;;;10468224;28;20223;-68
2022/05/20 07:26:45;;;;;;;5.70;5.20;;;26.80;99.90;;;;;;10467882;28;20778;-68
2022/05/20 07:31:45;;;;;;;5.90;4.77;;;26.80;99.90;;;;;;10460863;28;20277;-70
2022/05/20 07:36:46;;;;;;;8.20;5.53;;;28.30;99.90;;;;;;10464526;28;20224;-69
2022/05/20 07:41:47;;;;;;;6.20;5.60;;;29.40;98.30;;;;;;10467744;28;20315;-68
2022/05/20 07:46:47;;;;;;;7.70;4.73;;;29.70;98.90;;;;;;10456651;28;20255;-69
2022/05/20 07:51:55;;;;;;;4.43;3.77;;;30.00;96.00;;;;;;10447477;28;20254;-71
2022/05/20 07:57:02;;;;;;;6.27;4.60;;;30.90;95.20;;;;;;10454865;28;20213;-71
2022/05/20 08:02:03;;;;;;;5.63;4.33;;;34.00;84.70;;;;;;10455615;28;20219;-70
2022/05/20 08:07:09;;;;;;;5.33;3.70;;;35.70;71.10;;;;;;10475172;28;20249;-70
2022/05/20 08:12:10;;;;;;;4.13;3.23;;;37.30;60.00;;;;;;10471694;28;20220;-69
2022/05/20 08:17:11;;;;;;;7.67;3.43;;;37.90;55.50;;;;;;10456190;28;20247;-70
2022/05/20 08:22:12;;;;;;;7.30;3.50;;;37.50;55.30;;;;;;10460083;28;20254;-71
2022/05/20 08:27:12;;;;;;;6.30;3.40;;;36.90;55.70;;;;;;10465332;28;20216;-71
2022/05/20 08:32:15;;;;;;;6.47;3.60;;;36.90;55.50;;;;;;10462653;28;20219;-70
2022/05/20 08:37:17;;;;;;;7.90;4.17;;;38.50;53.30;;;;;;10466597;28;20211;-71
2022/05/20 08:42:20;;;;;;;5.23;3.47;;;38.00;52.70;;;;;;10454856;28;20239;-69
2022/05/20 08:47:36;;;;;;;5.17;3.87;;;39.70;48.90;;;;;;10459631;28;20250;-69
2022/05/20 08:52:36;;;;;;;7.07;3.47;;;40.90;45.70;;;;;;10461849;28;20219;-70
2022/05/20 08:57:39;;;;;;;5.33;3.77;;;41.70;43.90;;;;;;10465853;28;20224;-69
2022/05/20 09:02:41;;;;;;;6.50;3.43;;;42.00;40.60;;;;;;10463787;28;20224;-70
2022/05/20 09:07:58;;;;;;;5.03;3.50;;;42.70;39.10;;;;;;10463629;28;20227;-69
2022/05/20 09:13:10;;;;;;;6.17;4.30;;;41.10;41.00;;;;;;10465421;28;20310;-70
2022/05/20 09:18:29;;;;;;;6.40;3.83;;;41.50;41.20;;;;;;10460729;28;20327;-71
2022/05/20 09:23:30;;;;;;;7.57;4.13;;;41.40;38.70;;;;;;10467566;28;20223;-71
2022/05/20 09:28:36;;;;;;;7.23;3.80;;;40.30;39.00;;;;;;10459051;28;20231;-70
2022/05/20 09:33:40;;;;;;;8.23;3.73;;;39.90;41.60;;;;;;10461510;28;20231;-71
2022/05/20 09:38:43;;;;;;;7.93;4.03;;;38.90;42.50;;;;;;10462653;28;20230;-71
2022/05/20 09:43:51;;;;;;;10.43;4.10;;;38.50;44.50;;;;;;10461014;28;20228;-71
2022/05/20 09:49:01;;;;;;;7.10;3.93;;;38.70;42.50;;;;;;10469379;28;20655;-70
2022/05/20 09:54:37;;;;;;;6.40;3.43;;;37.90;46.50;;;;;;10465981;28;20781;-71
2022/05/20 10:00:00;;;;;;;6.53;4.00;;;36.40;46.60;;;;;;10455290;28;20215;-70
2022/05/20 10:05:25;;;;;;;9.37;4.47;;;35.30;49.90;;;;;;10468883;28;20227;-70
2022/05/20 10:10:42;;;;;;;6.63;3.77;;;37.60;46.70;;;;;;10470693;28;20219;-70
2022/05/20 10:15:47;;;;;;;5.57;4.00;;;40.50;42.00;;;;;;10472309;28;20646;-69
2022/05/20 10:21:06;;;;;;;6.27;4.40;;;42.80;38.50;;;;;;10468860;28;20265;-70
2022/05/20 10:26:21;;;;;;;6.47;4.55;;;44.40;35.40;;;;;;10462714;28;20230;-70
2022/05/20 10:37:00;;;;;;;6.07;4.28;;;44.40;34.50;;;;;;10466232;28;20224;-71
2022/05/20 10:42:27;;;;;;;5.70;4.22;;;45.00;33.50;;;;;;10472349;28;20246;-71
2022/05/20 10:53:38;;;;;;;15.70;4.72;;;45.00;33.00;;;;;;10468419;28;20223;-69
2022/05/20 10:58:50;;;;;;;6.97;4.25;;;44.20;33.70;;;;;;10459069;28;20281;-70
2022/05/20 11:04:09;;;;;;;11.07;5.37;;;44.40;33.00;;;;;;10471585;28;20218;-70
2022/05/20 11:09:19;;;;;;;12.80;5.13;;;43.90;33.50;;;;;;10467150;28;20281;-70
2022/05/20 11:14:42;;;;;;;11.15;4.82;;;43.60;34.00;;;;;;10457134;28;20231;-70
2022/05/20 11:20:15;;;;;;;10.40;5.00;;;44.00;33.70;;;;;;10474817;28;20226;-68
2022/05/20 11:25:43;;;;;;;11.37;4.77;;;42.60;34.50;;;;;;10472747;28;20212;-70
2022/05/20 11:30:53;;;;;;;8.30;4.73;;;39.30;39.00;;;;;;10465302;28;20422;-70
2022/05/20 11:36:39;;;;;;;11.67;5.63;;;37.00;42.80;;;;;;10467368;28;20678;-70
2022/05/20 11:42:17;;;;;;;15.43;5.37;;;35.20;45.30;;;;;;10459601;28;20227;-69
2022/05/20 11:47:39;;;;;;;9.93;5.03;;;34.30;48.80;;;;;;10468557;28;20848;-69
2022/05/20 11:53:13;;;;;;;9.40;5.40;;;34.40;48.80;;;;;;10443993;28;20323;-70
2022/05/20 11:58:23;;;;;;;10.13;5.30;;;34.60;49.10;;;;;;10469962;28;20227;-68
2022/05/20 12:03:30;;;;;;;12.33;5.60;;;34.90;48.50;;;;;;10461836;28;20278;-69
2022/05/20 12:08:46;;;;;;;8.73;5.57;;;34.80;48.40;;;;;;10454585;28;20212;-68
2022/05/20 12:14:06;;;;;;;13.47;5.50;;;34.80;48.60;;;;;;10466715;28;20223;-69
2022/05/20 12:24:43;;;;;;;9.20;4.87;;;33.40;50.40;;;;;;10451565;28;20216;-70
2022/05/20 12:29:47;;;;;;;12.03;5.30;;;32.90;51.50;;;;;;10464709;28;20697;-71
2022/05/20 12:35:04;;;;;;;8.23;4.83;;;32.70;52.20;;;;;;10466159;28;20228;-69
2022/05/20 12:40:05;;;;;;;8.93;5.43;;;32.90;52.00;;;;;;10460118;28;21192;-69
2022/05/20 12:45:07;;;;;;;14.87;5.60;;;33.00;52.20;;;;;;10478164;28;20275;-70
2022/05/20 12:50:27;;;;;;;6.47;4.37;;;32.90;52.50;;;;;;10467917;28;20236;-69
2022/05/20 12:55:37;;;;;;;10.93;5.30;;;32.80;52.70;;;;;;10460405;28;20236;-69
2022/05/20 13:00:50;;;;;;;7.23;4.93;;;32.60;51.70;;;;;;10470036;28;20600;-69
2022/05/20 13:06:04;;;;;;;11.57;4.80;;;32.20;51.90;;;;;;10458138;28;20292;-69
2022/05/20 13:11:10;;;;;;;10.33;4.60;;;31.90;53.00;;;;;;10462020;28;20219;-69
2022/05/20 13:16:13;;;;;;;9.53;4.93;;;32.10;52.70;;;;;;10465517;28;20289;-69
2022/05/20 13:21:17;;;;;;;7.10;4.33;;;32.20;53.20;;;;;;10474933;28;20215;-69
2022/05/20 13:26:36;;;;;;;9.67;4.27;;;31.80;52.60;;;;;;10463699;28;20258;-69
2022/05/20 13:31:37;;;;;;;9.30;4.63;;;31.60;53.60;;;;;;10456772;28;20212;-69
2022/05/20 13:36:49;;;;;;;18.00;5.00;;;31.90;53.90;;;;;;10468888;28;20227;-70
2022/05/20 13:41:51;;;;;;;10.13;4.30;;;32.10;53.00;;;;;;10472582;28;20245;-70
2022/05/20 13:52:14;;;;;;;9.10;5.10;;;32.20;53.20;;;;;;10474784;28;20219;-70
2022/05/20 13:57:40;;;;;;;12.37;4.47;;;32.10;53.30;;;;;;10470862;28;20646;-69
2022/05/20 14:02:48;;;;;;;5.60;4.50;;;31.40;56.20;;;;;;10469848;28;20249;-69
2022/05/20 14:07:52;;;;;;;7.70;5.50;;;30.70;63.40;;;;;;10471691;28;20344;-70
2022/05/20 14:13:02;;;;;;;9.77;5.50;;;30.10;68.50;;;;;;10461376;28;20220;-69
2022/05/20 14:18:05;;;;;;;8.70;5.47;;;29.40;74.50;;;;;;10469371;28;20223;-70
2022/05/20 14:23:08;;;;;;;10.57;5.87;;;28.60;82.20;;;;;;10457813;28;20720;-69
2022/05/20 14:28:16;;;;;;;12.40;6.37;;;28.10;86.70;;;;;;10460388;28;20215;-70
2022/05/20 14:33:39;;;;;;;9.93;6.17;;;27.70;89.00;;;;;;10467589;28;20231;-69
2022/05/20 14:38:47;;;;;;;11.43;5.87;;;27.60;93.10;;;;;;10464242;28;20227;-69
2022/05/20 14:44:00;;;;;;;9.30;5.50;;;27.40;94.50;;;;;;10468884;28;20311;-70
2022/05/20 14:49:01;;;;;;;13.40;5.27;;;27.30;96.70;;;;;;10461908;28;20567;-68
2022/05/20 14:54:04;;;;;;;10.53;5.03;;;27.50;96.30;;;;;;10468747;28;20238;-68
2022/05/20 14:59:06;;;;;;;10.97;5.90;;;27.80;96.20;;;;;;10473578;28;20310;-69
2022/05/20 15:04:07;;;;;;;10.43;5.17;;;28.50;99.00;;;;;;10469950;28;20220;-69
2022/05/20 15:09:25;;;;;;;8.27;5.20;;;29.00;99.90;;;;;;10471050;28;20602;-69
2022/05/20 15:14:26;;;;;;;11.10;5.97;;;29.10;99.10;;;;;;10466279;28;20246;-69
2022/05/20 15:19:30;;;;;;;10.97;5.30;;;29.20;98.30;;;;;;10474092;28;20288;-70
2022/05/20 15:24:31;;;;;;;9.13;5.07;;;29.20;97.10;;;;;;10458721;28;20658;-70
2022/05/20 15:29:32;;;;;;;9.73;4.60;;;29.10;97.20;;;;;;10463464;28;20215;-69
2022/05/20 15:39:59;;;;;;;12.73;4.93;;;29.60;95.20;;;;;;10465085;28;20598;-69
2022/05/20 15:45:00;;;;;;;9.67;4.90;;;30.00;93.50;;;;;;10462230;28;20230;-68
2022/05/20 15:50:01;;;;;;;8.87;4.23;;;30.10;92.60;;;;;;10469246;28;20243;-68
2022/05/20 15:55:27;;;;;;;9.63;4.47;;;30.00;91.50;;;;;;10467614;28;20325;-68
2022/05/20 16:00:28;;;;;;;8.50;4.70;;;29.60;89.40;;;;;;10447244;28;20246;-69
2022/05/20 16:05:28;;;;;;;9.80;4.17;;;29.30;90.70;;;;;;10458254;28;20220;-70
2022/05/20 16:10:35;;;;;;;7.57;3.97;;;29.00;90.40;;;;;;10463286;28;20227;-69
2022/05/20 16:15:40;;;;;;;9.17;3.63;;;28.80;89.60;;;;;;10456906;28;20243;-69
2022/05/20 16:20:44;;;;;;;10.13;3.67;;;28.90;82.30;;;;;;10471368;28;20219;-69
2022/05/20 16:25:46;;;;;;;8.17;3.40;;;28.90;77.60;;;;;;10456925;28;20230;-68
2022/05/20 16:30:46;;;;;;;7.37;3.20;;;28.80;72.70;;;;;;10452859;28;20223;-69
2022/05/20 16:35:48;;;;;;;7.93;3.87;;;28.70;74.20;;;;;;10467509;28;20240;-69
2022/05/20 16:40:48;;;;;;;10.10;3.70;;;28.50;72.30;;;;;;10470543;28;20231;-73
2022/05/20 16:45:49;;;;;;;10.17;3.80;;;28.20;70.50;;;;;;10465216;28;20682;-71
2022/05/20 16:50:52;;;;;;;10.73;3.57;;;28.10;72.00;;;;;;10466590;28;20889;-70
2022/05/20 17:01:45;;;;;;;12.60;3.97;;;28.10;70.40;;;;;;10463656;28;20231;-71
2022/05/20 17:06:33;;;;;;;7.97;3.20;;;27.80;70.10;;;;;;10450879;28;20305;-70
2022/05/20 17:11:35;;;;;;;10.37;3.07;;;27.60;71.80;;;;;;10467832;28;20275;-70
2022/05/20 17:16:37;;;;;;;11.90;3.30;;;27.40;72.80;;;;;;10454693;28;20648;-70
2022/05/20 17:27:08;;;;;;;8.57;3.17;;;26.90;74.90;;;;;;10463651;28;20238;-70
2022/05/20 17:32:10;;;;;;;13.63;3.50;;;26.70;75.90;;;;;;10469063;28;20253;-70
2022/05/20 17:37:14;;;;;;;10.40;3.30;;;26.60;76.10;;;;;;10465770;28;20226;-70
2022/05/20 17:42:15;;;;;;;7.73;3.63;;;26.50;76.80;;;;;;10460458;28;20226;-71
2022/05/20 17:47:16;;;;;;;8.23;3.47;;;26.50;77.10;;;;;;10463032;28;20223;-71
2022/05/20 17:52:19;;;;;;;14.03;4.23;;;26.50;78.30;;;;;;10467181;28;20641;-69
2022/05/20 17:57:24;;;;;;;7.47;3.43;;;26.40;77.40;;;;;;10461192;28;20224;-71
2022/05/20 18:02:28;;;;;;;11.67;3.60;;;26.40;77.90;;;;;;10448091;28;20222;-71
2022/05/20 18:07:29;;;;;;;13.13;3.43;;;26.40;78.40;;;;;;10456501;28;20228;-71
2022/05/20 18:12:29;;;;;;;14.70;4.23;;;26.30;79.60;;;;;;10477688;28;20228;-73
2022/05/20 18:17:33;;;;;;;10.50;3.83;;;26.10;81.40;;;;;;10470289;28;20219;-70
2022/05/20 18:22:36;;;;;;;11.97;3.67;;;25.90;86.30;;;;;;10477869;28;20226;-70
2022/05/20 18:27:37;;;;;;;10.33;3.13;;;25.70;84.20;;;;;;10461359;28;20284;-70
2022/05/20 18:32:38;;;;;;;11.13;3.50;;;25.60;85.10;;;;;;10466005;28;20227;-70
2022/05/20 18:42:59;;;;;;;5.57;1.90;;;25.30;90.60;;;;;;10467280;28;20231;-71
2022/05/20 18:47:59;;;;;;;6.27;1.90;;;24.70;93.00;;;;;;10474091;28;20218;-70
2022/05/20 18:53:00;;;;;;;6.93;2.90;;;24.20;95.10;;;;;;10462015;28;20222;-71
2022/05/20 18:58:01;;;;;;;9.77;4.03;;;23.30;99.90;;;;;;10472502;28;20747;-70
2022/05/20 19:08:22;;;;;;;9.93;3.60;;;21.70;99.90;;;;;;10470530;28;20220;-67
2022/05/20 19:13:24;;;;;;;8.00;3.60;;;21.40;99.90;;;;;;10467033;28;20223;-68
2022/05/20 19:18:24;;;;;;;6.83;3.40;;;21.30;99.90;;;;;;10458904;28;20228;-68
2022/05/20 19:23:26;;;;;;;3.40;3.10;;;21.20;99.90;;;;;;10475715;28;20758;-69
2022/05/20 19:28:26;;;;;;;5.27;3.40;;;21.30;99.90;;;;;;10464627;28;20282;-69
2022/05/20 19:33:27;;;;;;;5.77;3.13;;;21.30;99.90;;;;;;10490984;28;20272;-69
2022/05/20 19:38:28;;;;;;;5.20;2.70;;;21.30;99.90;;;;;;10472003;28;20251;-69
2022/05/20 19:43:28;;;;;;;6.70;3.20;;;21.40;99.90;;;;;;10458079;28;20230;-69
2022/05/20 19:48:30;;;;;;;6.87;3.03;;;21.40;99.90;;;;;;10468712;28;20302;-69
2022/05/20 19:53:30;;;;;;;8.80;2.87;;;21.40;99.90;;;;;;10471696;28;20233;-69
2022/05/20 20:03:52;;;;;;;5.07;2.53;;;21.50;99.90;;;;;;10447588;28;20242;-68
2022/05/20 20:08:53;;;;;;;3.33;2.47;;;21.40;99.90;;;;;;10462076;28;20224;-67
2022/05/20 20:13:53;;;;;;;5.87;2.40;;;21.30;99.90;;;;;;10467020;28;20235;-68
2022/05/20 20:18:58;;;;;;;4.63;2.60;;;21.20;99.90;;;;;;10470247;28;20286;-68
2022/05/20 20:29:20;;;;;;;3.27;2.47;;;21.20;99.90;;;;;;10454900;28;20223;-70
2022/05/20 20:34:22;;;;;;;5.53;2.37;;;21.20;99.90;;;;;;10472370;28;20310;-70
2022/05/20 20:39:23;;;;;;;3.97;2.70;;;21.20;99.90;;;;;;10465890;28;20702;-70
2022/05/20 20:44:23;;;;;;;2.80;2.17;;;21.00;99.90;;;;;;10464694;28;20247;-69
2022/05/20 20:49:24;;;;;;;3.40;2.13;;;20.70;99.90;;;;;;10469867;28;20304;-70
2022/05/20 20:54:25;;;;;;;3.23;2.00;;;20.50;99.90;;;;;;10466934;28;20227;-69
2022/05/20 20:59:26;;;;;;;2.97;2.10;;;20.30;99.90;;;;;;10456394;28;20212;-68
2022/05/20 21:04:26;;;;;;;4.47;2.20;;;20.30;99.90;;;;;;10472483;28;20226;-68
2022/05/20 21:09:27;;;;;;;5.57;2.17;;;20.20;99.90;;;;;;10465500;28;20240;-69
2022/05/20 21:14:28;;;;;;;2.43;2.23;;;20.10;99.90;;;;;;10456095;28;20289;-69
2022/05/20 21:19:31;;;;;;;2.37;2.10;;;19.90;99.90;;;;;;10458033;28;21035;-69
2022/05/20 21:24:32;;;;;;;3.97;2.30;;;19.70;99.90;;;;;;10470336;28;20623;-69
2022/05/20 21:29:33;;;;;;;5.60;2.33;;;19.60;99.90;;;;;;10464812;28;20219;-69
2022/05/20 21:34:35;;;;;;;4.33;2.40;;;19.40;99.90;;;;;;10463528;28;20810;-70
2022/05/20 21:39:36;;;;;;;4.60;2.70;;;19.30;99.90;;;;;;10464967;28;20216;-70
2022/05/20 21:44:36;;;;;;;4.00;2.47;;;19.20;99.90;;;;;;10468756;28;20824;-69
2022/05/20 21:49:39;;;;;;;6.77;2.30;;;19.00;99.90;;;;;;10479498;28;20225;-70
2022/05/20 21:54:40;;;;;;;5.83;2.07;;;19.00;99.90;;;;;;10466378;28;20237;-71
2022/05/20 21:59:44;;;;;;;4.20;2.20;;;18.80;99.90;;;;;;10475829;28;20215;-70
2022/05/20 22:10:06;;;;;;;3.93;2.13;;;18.60;99.90;;;;;;10468153;28;20943;-69
2022/05/20 22:15:08;;;;;;;3.33;2.27;;;18.50;99.90;;;;;;10470347;28;20234;-69
2022/05/20 22:20:11;;;;;;;3.17;2.03;;;18.50;99.90;;;;;;10471170;28;20270;-70
2022/05/20 22:25:14;;;;;;;2.23;1.80;;;18.80;99.90;;;;;;10471757;28;20244;-70
2022/05/20 22:30:15;;;;;;;3.53;2.17;;;18.60;99.90;;;;;;10472744;28;20206;-70
2022/05/20 22:35:15;;;;;;;2.30;1.83;;;18.40;99.90;;;;;;10476570;28;20228;-69
2022/05/20 22:40:20;;;;;;;3.53;1.87;;;18.20;99.90;;;;;;10472144;28;20179;-68
2022/05/20 22:45:20;;;;;;;1.90;1.57;;;18.10;99.90;;;;;;10468663;28;20672;-68
2022/05/20 22:50:21;;;;;;;3.23;1.87;;;18.00;99.90;;;;;;10474078;28;20243;-70
2022/05/20 23:00:41;;;;;;;3.20;1.60;;;17.70;99.90;;;;;;10463887;28;20218;-71
2022/05/20 23:05:42;;;;;;;2.77;1.80;;;17.60;99.90;;;;;;10477428;28;20214;-70
2022/05/20 23:10:43;;;;;;;4.73;1.77;;;17.50;99.90;;;;;;10466144;28;20221;-70
2022/05/20 23:15:47;;;;;;;3.43;1.63;;;17.40;99.90;;;;;;10472079;28;20230;-71
2022/05/20 23:20:48;;;;;;;1.73;1.63;;;17.30;99.90;;;;;;10470313;28;20306;-70
2022/05/20 23:25:52;;;;;;;2.90;1.80;;;17.30;99.90;;;;;;10471446;28;20245;-71
2022/05/20 23:30:58;;;;;;;5.53;2.00;;;17.30;99.90;;;;;;10467697;28;20226;-69
2022/05/20 23:35:59;;;;;;;2.47;1.70;;;17.20;99.90;;;;;;10467879;28;20353;-70
2022/05/20 23:41:00;;;;;;;6.07;1.70;;;17.20;99.90;;;;;;10475225;28;20234;-72
2022/05/20 23:46:02;;;;;;;1.67;1.50;;;17.20;99.90;;;;;;10469944;28;20318;-69
2022/05/20 23:51:02;;;;;;;3.30;1.60;;;17.30;99.90;;;;;;10458026;28;20267;-69
